Tellico Plains, TN

2:45 AM EDT on March 28, 2017 (GMT -0400)
Mountains ki4mjq | | Change Station

Elev 1670 ft 35.25 °N, 84.34 °W | Updated 19 seconds ago

Overcast
Overcast
56.3 °F
Feels Like 56.3 °F
N
2.0
Wind Variable Wind from South

Today
High -- | Low -- °F
--% Chance of Precip.
Yesterday
High -- | Low -- °F
Precip. -- in
Pressure 30.01 in
Visibility 7.0 miles
Clouds Scattered Clouds 4300 ft
Scattered Clouds 5500 ft
Overcast 7000 ft
Dew Point 56 °F
Humidity 98%
Rainfall 0.30 in
Snow Depth Not available.
7:29 AM 7:55 PM
New Moon, 0% visible
METAR KRHP 280620Z AUTO 05003KT 7SM RA SCT043 SCT055 OVC070 13/13 A3001 RMK AO2 P0008 T01310131
Pressure 30.01 in
Visibility 7.0 miles
Clouds Scattered Clouds 4300 ft
Scattered Clouds 5500 ft
Overcast 7000 ft
Dew Point 56 °F
Humidity 98%
Rainfall 0.30 in
Snow Depth Not available.
7:29 AM 7:55 PM
New Moon, 0% visible
METAR KRHP 280620Z AUTO 05003KT 7SM RA SCT043 SCT055 OVC070 13/13 A3001 RMK AO2 P0008 T01310131

Get Severe Weather Alerts

Thanks for signing up!

Be on the lookout for a verification email in your inbox.

You'll start receiving the daily forecast at 8 AM.

×

10-Day Weather Forecast

Almanac

Astronomy

Mar. 28, 2017 Rise Set
Actual Time
Civil Twilight
Nautical Twilight
Astronomical Twilight
Moon
Length of Visible Light
Length of Day
Tomorrow will be .
, % of the Moon is Illuminated

Today's Extremes

State Highs State Lows

Community

WunderPhotos

Upload Photos

1,962,540 photos uploaded!

WunderBlog® & News

Nearby

Air Quality

  Air Quality AQ Index Pollutant
Not available.

Snow Depth

Station Depth Elevation

Earthquake Activity

City Distance Mag. Time & Date
Minimum magnitude displayed is 2.5.

Earthquake Activity

City Distance Mag. Time & Date
Minimum magnitude displayed is 2.5.

Coastal Water Temperatures

Place Temperature

Stations

Nearby Weather Stations

Station Location Temp. Windchill Dew Point Humidity Wind Precip. Elev Updated Type
                   

Watches & Warnings

There are currently no watches in effect.